• Join FlightAware (Why Join?)
  • Login
  • US Flag 
06:20AM EDT


 

Airport Tracker/Info


-or-


 

Live Flight TrackerFlight Track Log ✈ UCA3596 ✈ 06-Oct-2013 ✈ KIAD - KBGM

Flight Track Log - Related Links

Times and Time Zones

All times are in EDT time to prevent confusion due to time zone crossing. See the UCA3596 flight status page for this flight to view local times or setup timezone preferences in your user account.

Time Position Orientation Groundspeed Altitude Reporting Facility
EDT Latitude Longitude Course Direction KTS MPH feet Rate Location/Type
01:10PM 39.5035 -77.2181 19° North  Level Estimated
01:11PM 39.5652 -77.1910 19° North  Level Estimated
01:12PM 39.6270 -77.1638 19° North  Level Estimated
01:13PM 39.6887 -77.1366 19° North  Level Estimated
01:14PM 39.7505 -77.1093 19° North  Level Estimated
01:15PM 39.8122 -77.0820 19° North  Level Estimated
01:16PM 39.8739 -77.0547 19° North  Level Estimated
01:17PM 39.9356 -77.0273 19° North  Level Estimated
01:18PM 39.9973 -76.9998 19° North  Level Estimated
01:19PM 40.0590 -76.9723 19° North  Level Estimated
01:20PM 40.1207 -76.9448 19° North  Level Estimated
01:21PM 40.1824 -76.9172 19° North  Level Estimated
01:22PM 40.2441 -76.8895 19° North  Level Estimated
01:23PM 40.3058 -76.8618 19° North  Level Estimated
01:24PM 40.3674 -76.8341 19° North  Level Estimated
01:25PM 40.4291 -76.8063 19° North  Level Estimated
01:26PM 40.4907 -76.7784 19° North  Level Estimated
01:27PM 40.5524 -76.7505 19° North  Level Estimated
01:28PM 40.6140 -76.7225 19° North  Level Estimated
01:29PM 40.6757 -76.6945 19° North  Level Estimated
01:30PM 40.7373 -76.6665 19° North  Level Estimated
01:31PM 40.7989 -76.6383 19° North  Level Estimated
01:32PM 40.8605 -76.6102 19° North  Level Estimated
01:33PM 40.9221 -76.5819 19° North  Level Estimated
01:34PM 40.9837 -76.5537 19° North  Level Estimated
01:35PM 41.0453 -76.5253 19° North  Level Estimated
01:36PM 41.1069 -76.4970 19° North  Level Estimated
01:37PM 41.1685 -76.4685 19° North  Level Estimated
01:38PM 41.2301 -76.4400 19° North  Level Estimated
01:39PM 41.2916 -76.4115 19° North  Level Estimated
01:40PM 41.3532 -76.3829 19° North  Level Estimated
01:41PM 41.4147 -76.3543 19° North  Level Estimated
01:42PM 41.4763 -76.3256 19° North  Level Estimated
01:43PM 41.5378 -76.2968 19° North  Level Estimated
01:44PM 41.5993 -76.2680 19° North  Level Estimated
01:45PM 41.6609 -76.2391 19° North  Level Estimated
01:46PM 41.7224 -76.2102 19° North  Level Estimated
01:47PM 41.7839 -76.1812 19° North  Level Estimated
01:48PM 41.8454 -76.1522 19° North  Level Estimated
01:49PM 41.9069 -76.1231 19° North  Level Estimated
01:50PM 41.9684 -76.0940 19° North  Level Estimated
01:51PM 42.0299 -76.0648 19° North  Level Estimated
01:52PM 42.0913 -76.0355 19° North  Level Estimated
01:53PM 42.1528 -76.0062 19° North  Level Estimated
01:54PM 42.2084 -75.9796 19° North  Level Estimated
01:55PM 42.2084 -75.9796 35° Northeast  Level Estimated
01:56PM 42.2084 -75.9796 35° Northeast  Level Estimated
01:57PM 42.2084 -75.9796 35° Northeast  Level Estimated
01:58PM 42.2084 -75.9796 35° Northeast  Level Estimated
01:59PM 42.2084 -75.9796 35° Northeast  Level Estimated
02:00PM 42.2084 -75.9796 35° Northeast  Level Estimated
02:01PM 42.2084 -75.9796 35° Northeast  Level Estimated
02:02PM 42.2084 -75.9796 35° Northeast  Level Estimated
02:03PM 42.2084 -75.9796 35° Northeast  Level Estimated
02:04PM 42.2084 -75.9796 35° Northeast  Level Estimated
02:05PM 42.2084 -75.9796 35° Northeast  Level Estimated
02:06PM 42.2084 -75.9796 35° Northeast  Level Estimated
02:07PM 42.2084 -75.9796 35° Northeast  Level Estimated